Maple Heights, Ohio
Current Conditions -  °F | °C
As of 11:53 PM on Monday 26 Jan 2015 (Local Time) from KBKL Reporting Station
Light Snow Light Snow  
Wind Chill: 12°   Ceiling: 2600
Heat Index: 22°   Visibility: 4mi
Dew Point: 16°   Wind: 9mph
Humidity: 78%   Direction: 20°NNE
Pressure: 29.93"   Gusts: NA
Location:  41.41°N, 81.56°W
Report Text: KBKL 270453Z 02008KT 4SM -SN FEW011 OVC026 M06/M09 A2993 RMK AO2 SLP144 P0000 T10561089 410441072
Loading
Personal Weather Stations






























Interactive Weather Map New forecast layout! Learn more

10-Day Weather Forecast

Advertisements
Track Severe Weather on mobile